sensor_id;sensor_type;location;lat;lon;timestamp;P1;durP1;ratioP1;P2;durP2;ratioP2
84187;SDS011;76752;45.648;13.764;2024-02-21T00:00:47;17.38;;;8.13;;
84187;SDS011;76752;45.648;13.764;2024-02-21T00:03:12;20.77;;;8.98;;
84187;SDS011;76752;45.648;13.764;2024-02-21T00:05:38;24.38;;;9.13;;
84187;SDS011;76752;45.648;13.764;2024-02-21T00:08:04;21.52;;;8.63;;
84187;SDS011;76752;45.648;13.764;2024-02-21T00:10:30;25.13;;;9.35;;
84187;SDS011;76752;45.648;13.764;2024-02-21T00:12:57;24.42;;;8.73;;
84187;SDS011;76752;45.648;13.764;2024-02-21T00:15:24;20.17;;;8.50;;
84187;SDS011;76752;45.648;13.764;2024-02-21T00:17:51;18.63;;;8.75;;
84187;SDS011;76752;45.648;13.764;2024-02-21T00:20:17;18.83;;;8.50;;
84187;SDS011;76752;45.648;13.764;2024-02-21T00:22:43;17.42;;;8.73;;
84187;SDS011;76752;45.648;13.764;2024-02-21T00:25:09;22.67;;;9.30;;
84187;SDS011;76752;45.648;13.764;2024-02-21T00:27:35;20.90;;;9.05;;
84187;SDS011;76752;45.648;13.764;2024-02-21T00:30:02;22.60;;;8.73;;
84187;SDS011;76752;45.648;13.764;2024-02-21T00:32:28;18.15;;;8.13;;
84187;SDS011;76752;45.648;13.764;2024-02-21T00:34:54;22.42;;;8.73;;
84187;SDS011;76752;45.648;13.764;2024-02-21T00:37:20;18.95;;;8.15;;
84187;SDS011;76752;45.648;13.764;2024-02-21T00:39:47;18.73;;;8.32;;
84187;SDS011;76752;45.648;13.764;2024-02-21T00:42:13;18.35;;;8.23;;
84187;SDS011;76752;45.648;13.764;2024-02-21T00:44:39;20.48;;;8.35;;
84187;SDS011;76752;45.648;13.764;2024-02-21T00:47:06;18.35;;;8.35;;
84187;SDS011;76752;45.648;13.764;2024-02-21T00:49:32;16.02;;;7.95;;
84187;SDS011;76752;45.648;13.764;2024-02-21T00:51:58;16.88;;;8.32;;
84187;SDS011;76752;45.648;13.764;2024-02-21T00:54:24;13.55;;;7.32;;
84187;SDS011;76752;45.648;13.764;2024-02-21T00:56:49;16.13;;;7.82;;
84187;SDS011;76752;45.648;13.764;2024-02-21T00:59:15;22.10;;;8.63;;
84187;SDS011;76752;45.648;13.764;2024-02-21T01:01:41;17.23;;;7.55;;
84187;SDS011;76752;45.648;13.764;2024-02-21T01:04:09;20.30;;;8.38;;
84187;SDS011;76752;45.648;13.764;2024-02-21T01:06:35;13.45;;;7.45;;
84187;SDS011;76752;45.648;13.764;2024-02-21T01:09:01;14.35;;;7.28;;
84187;SDS011;76752;45.648;13.764;2024-02-21T01:11:27;19.02;;;8.50;;
84187;SDS011;76752;45.648;13.764;2024-02-21T01:13:52;17.05;;;7.85;;
84187;SDS011;76752;45.648;13.764;2024-02-21T01:16:18;16.33;;;7.55;;
84187;SDS011;76752;45.648;13.764;2024-02-21T01:18:44;12.18;;;7.38;;
84187;SDS011;76752;45.648;13.764;2024-02-21T01:21:10;17.98;;;7.95;;
84187;SDS011;76752;45.648;13.764;2024-02-21T01:23:36;15.50;;;7.18;;
84187;SDS011;76752;45.648;13.764;2024-02-21T01:26:05;17.73;;;7.97;;
84187;SDS011;76752;45.648;13.764;2024-02-21T01:28:33;14.52;;;7.22;;
84187;SDS011;76752;45.648;13.764;2024-02-21T01:31:00;15.77;;;7.70;;
84187;SDS011;76752;45.648;13.764;2024-02-21T01:33:25;16.17;;;7.72;;
84187;SDS011;76752;45.648;13.764;2024-02-21T01:35:51;16.08;;;7.88;;
84187;SDS011;76752;45.648;13.764;2024-02-21T01:38:17;14.20;;;7.38;;
84187;SDS011;76752;45.648;13.764;2024-02-21T01:40:43;17.45;;;7.78;;
84187;SDS011;76752;45.648;13.764;2024-02-21T01:43:15;15.55;;;7.15;;
84187;SDS011;76752;45.648;13.764;2024-02-21T01:45:49;14.00;;;7.25;;
84187;SDS011;76752;45.648;13.764;2024-02-21T01:48:17;13.48;;;6.57;;
84187;SDS011;76752;45.648;13.764;2024-02-21T01:50:47;11.55;;;6.78;;
84187;SDS011;76752;45.648;13.764;2024-02-21T01:53:30;14.73;;;7.38;;
84187;SDS011;76752;45.648;13.764;2024-02-21T01:58:27;13.60;;;6.82;;
84187;SDS011;76752;45.648;13.764;2024-02-21T02:00:56;15.65;;;6.68;;
84187;SDS011;76752;45.648;13.764;2024-02-21T02:03:22;12.38;;;6.50;;
84187;SDS011;76752;45.648;13.764;2024-02-21T02:05:48;14.02;;;7.18;;
84187;SDS011;76752;45.648;13.764;2024-02-21T02:08:15;13.30;;;7.30;;
84187;SDS011;76752;45.648;13.764;2024-02-21T02:10:42;15.95;;;7.13;;
84187;SDS011;76752;45.648;13.764;2024-02-21T02:13:08;12.35;;;6.10;;
84187;SDS011;76752;45.648;13.764;2024-02-21T02:15:38;14.73;;;7.53;;
84187;SDS011;76752;45.648;13.764;2024-02-21T02:18:04;13.55;;;6.70;;
84187;SDS011;76752;45.648;13.764;2024-02-21T02:20:30;10.48;;;6.32;;
84187;SDS011;76752;45.648;13.764;2024-02-21T02:22:57;16.17;;;7.20;;
84187;SDS011;76752;45.648;13.764;2024-02-21T02:25:25;12.25;;;6.47;;
84187;SDS011;76752;45.648;13.764;2024-02-21T02:27:51;12.25;;;6.50;;
84187;SDS011;76752;45.648;13.764;2024-02-21T02:30:18;13.45;;;6.97;;
84187;SDS011;76752;45.648;13.764;2024-02-21T02:32:45;13.65;;;6.75;;
84187;SDS011;76752;45.648;13.764;2024-02-21T02:35:14;12.70;;;6.97;;
84187;SDS011;76752;45.648;13.764;2024-02-21T02:37:40;12.80;;;6.45;;
84187;SDS011;76752;45.648;13.764;2024-02-21T02:40:06;9.18;;;6.10;;
84187;SDS011;76752;45.648;13.764;2024-02-21T02:42:32;10.35;;;6.22;;
84187;SDS011;76752;45.648;13.764;2024-02-21T02:44:58;15.07;;;6.68;;
84187;SDS011;76752;45.648;13.764;2024-02-21T02:47:24;14.32;;;7.05;;
84187;SDS011;76752;45.648;13.764;2024-02-21T02:49:49;13.68;;;6.18;;
84187;SDS011;76752;45.648;13.764;2024-02-21T02:52:16;15.50;;;6.35;;
84187;SDS011;76752;45.648;13.764;2024-02-21T02:54:43;11.27;;;6.07;;
84187;SDS011;76752;45.648;13.764;2024-02-21T02:57:09;12.65;;;6.70;;
84187;SDS011;76752;45.648;13.764;2024-02-21T02:59:35;10.98;;;6.15;;
84187;SDS011;76752;45.648;13.764;2024-02-21T03:02:01;13.65;;;7.07;;
84187;SDS011;76752;45.648;13.764;2024-02-21T03:04:28;11.68;;;6.07;;
84187;SDS011;76752;45.648;13.764;2024-02-21T03:06:54;13.20;;;6.55;;
84187;SDS011;76752;45.648;13.764;2024-02-21T03:09:20;11.68;;;6.32;;
84187;SDS011;76752;45.648;13.764;2024-02-21T03:11:46;8.45;;;5.95;;
84187;SDS011;76752;45.648;13.764;2024-02-21T03:14:12;11.38;;;6.35;;
84187;SDS011;76752;45.648;13.764;2024-02-21T03:16:38;12.13;;;5.63;;
84187;SDS011;76752;45.648;13.764;2024-02-21T03:19:05;14.68;;;5.93;;
84187;SDS011;76752;45.648;13.764;2024-02-21T03:21:30;10.73;;;5.90;;
84187;SDS011;76752;45.648;13.764;2024-02-21T03:23:56;9.95;;;6.13;;
84187;SDS011;76752;45.648;13.764;2024-02-21T03:26:22;11.95;;;6.05;;
84187;SDS011;76752;45.648;13.764;2024-02-21T03:28:49;12.38;;;6.10;;
84187;SDS011;76752;45.648;13.764;2024-02-21T03:31:15;10.70;;;5.53;;
84187;SDS011;76752;45.648;13.764;2024-02-21T03:33:42;9.43;;;5.68;;
84187;SDS011;76752;45.648;13.764;2024-02-21T03:36:14;10.30;;;5.65;;
84187;SDS011;76752;45.648;13.764;2024-02-21T03:38:42;9.48;;;5.38;;
84187;SDS011;76752;45.648;13.764;2024-02-21T03:41:08;8.68;;;5.45;;
84187;SDS011;76752;45.648;13.764;2024-02-21T03:43:34;10.73;;;6.03;;
84187;SDS011;76752;45.648;13.764;2024-02-21T03:46:00;10.95;;;5.57;;
84187;SDS011;76752;45.648;13.764;2024-02-21T03:48:26;12.35;;;6.03;;
84187;SDS011;76752;45.648;13.764;2024-02-21T03:50:52;10.55;;;5.72;;
84187;SDS011;76752;45.648;13.764;2024-02-21T03:53:18;10.15;;;5.32;;
84187;SDS011;76752;45.648;13.764;2024-02-21T03:55:44;9.48;;;5.60;;
84187;SDS011;76752;45.648;13.764;2024-02-21T03:58:10;11.05;;;5.40;;
84187;SDS011;76752;45.648;13.764;2024-02-21T04:00:39;10.25;;;5.60;;
84187;SDS011;76752;45.648;13.764;2024-02-21T04:03:05;9.70;;;5.63;;
84187;SDS011;76752;45.648;13.764;2024-02-21T04:05:31;9.40;;;5.35;;
84187;SDS011;76752;45.648;13.764;2024-02-21T04:07:57;9.60;;;5.80;;
84187;SDS011;76752;45.648;13.764;2024-02-21T04:10:24;8.15;;;5.35;;
84187;SDS011;76752;45.648;13.764;2024-02-21T04:12:50;11.25;;;6.05;;
84187;SDS011;76752;45.648;13.764;2024-02-21T04:15:16;12.73;;;5.78;;
84187;SDS011;76752;45.648;13.764;2024-02-21T04:17:42;11.25;;;5.60;;
84187;SDS011;76752;45.648;13.764;2024-02-21T04:20:13;7.47;;;5.10;;
84187;SDS011;76752;45.648;13.764;2024-02-21T04:22:41;9.82;;;5.30;;
84187;SDS011;76752;45.648;13.764;2024-02-21T04:25:13;7.65;;;4.88;;
84187;SDS011;76752;45.648;13.764;2024-02-21T04:27:39;8.90;;;5.22;;
84187;SDS011;76752;45.648;13.764;2024-02-21T04:30:05;7.85;;;5.40;;
84187;SDS011;76752;45.648;13.764;2024-02-21T04:32:32;8.23;;;5.03;;
84187;SDS011;76752;45.648;13.764;2024-02-21T04:34:58;7.10;;;4.97;;
84187;SDS011;76752;45.648;13.764;2024-02-21T04:37:23;7.00;;;4.63;;
84187;SDS011;76752;45.648;13.764;2024-02-21T04:39:49;8.13;;;4.70;;
84187;SDS011;76752;45.648;13.764;2024-02-21T04:42:15;7.53;;;4.82;;
84187;SDS011;76752;45.648;13.764;2024-02-21T04:44:41;7.05;;;4.70;;
84187;SDS011;76752;45.648;13.764;2024-02-21T04:47:08;7.50;;;4.95;;
84187;SDS011;76752;45.648;13.764;2024-02-21T04:49:34;8.63;;;4.68;;
84187;SDS011;76752;45.648;13.764;2024-02-21T04:52:00;7.30;;;4.63;;
84187;SDS011;76752;45.648;13.764;2024-02-21T04:54:26;11.40;;;4.80;;
84187;SDS011;76752;45.648;13.764;2024-02-21T04:56:52;10.25;;;4.80;;
84187;SDS011;76752;45.648;13.764;2024-02-21T04:59:19;5.95;;;4.20;;
84187;SDS011;76752;45.648;13.764;2024-02-21T05:01:45;8.18;;;4.60;;
84187;SDS011;76752;45.648;13.764;2024-02-21T05:04:11;6.25;;;4.70;;
84187;SDS011;76752;45.648;13.764;2024-02-21T05:06:38;11.35;;;4.90;;
84187;SDS011;76752;45.648;13.764;2024-02-21T05:09:05;9.32;;;4.82;;
84187;SDS011;76752;45.648;13.764;2024-02-21T05:11:33;6.93;;;4.50;;
84187;SDS011;76752;45.648;13.764;2024-02-21T05:13:59;9.27;;;4.90;;
84187;SDS011;76752;45.648;13.764;2024-02-21T05:16:25;6.18;;;4.60;;
84187;SDS011;76752;45.648;13.764;2024-02-21T05:18:51;6.00;;;4.90;;
84187;SDS011;76752;45.648;13.764;2024-02-21T05:21:17;5.30;;;4.07;;
84187;SDS011;76752;45.648;13.764;2024-02-21T05:23:43;5.57;;;4.53;;
84187;SDS011;76752;45.648;13.764;2024-02-21T05:26:09;10.88;;;5.00;;
84187;SDS011;76752;45.648;13.764;2024-02-21T05:28:35;10.15;;;4.78;;
84187;SDS011;76752;45.648;13.764;2024-02-21T05:31:00;12.90;;;5.15;;
84187;SDS011;76752;45.648;13.764;2024-02-21T05:33:26;11.90;;;5.35;;
84187;SDS011;76752;45.648;13.764;2024-02-21T05:35:53;9.68;;;5.07;;
84187;SDS011;76752;45.648;13.764;2024-02-21T05:38:19;16.88;;;5.57;;
84187;SDS011;76752;45.648;13.764;2024-02-21T05:40:46;12.40;;;5.70;;
84187;SDS011;76752;45.648;13.764;2024-02-21T05:43:13;20.52;;;4.93;;
84187;SDS011;76752;45.648;13.764;2024-02-21T05:45:39;12.85;;;5.05;;
84187;SDS011;76752;45.648;13.764;2024-02-21T05:48:04;18.55;;;5.35;;
84187;SDS011;76752;45.648;13.764;2024-02-21T05:50:31;7.95;;;4.72;;
84187;SDS011;76752;45.648;13.764;2024-02-21T05:52:58;13.55;;;5.28;;
84187;SDS011;76752;45.648;13.764;2024-02-21T05:55:24;14.43;;;5.35;;
84187;SDS011;76752;45.648;13.764;2024-02-21T05:57:53;17.20;;;5.65;;
84187;SDS011;76752;45.648;13.764;2024-02-21T06:00:19;9.68;;;4.75;;
84187;SDS011;76752;45.648;13.764;2024-02-21T06:02:48;17.65;;;4.70;;
84187;SDS011;76752;45.648;13.764;2024-02-21T06:05:14;12.07;;;5.10;;
84187;SDS011;76752;45.648;13.764;2024-02-21T06:07:40;9.40;;;4.97;;
84187;SDS011;76752;45.648;13.764;2024-02-21T06:10:07;16.52;;;5.13;;
84187;SDS011;76752;45.648;13.764;2024-02-21T06:12:33;19.90;;;4.68;;
84187;SDS011;76752;45.648;13.764;2024-02-21T06:14:59;17.15;;;5.25;;
84187;SDS011;76752;45.648;13.764;2024-02-21T06:17:25;11.48;;;4.70;;
84187;SDS011;76752;45.648;13.764;2024-02-21T06:19:51;17.27;;;4.90;;
84187;SDS011;76752;45.648;13.764;2024-02-21T06:22:17;10.55;;;4.63;;
84187;SDS011;76752;45.648;13.764;2024-02-21T06:24:43;13.40;;;4.55;;
84187;SDS011;76752;45.648;13.764;2024-02-21T06:27:09;19.20;;;4.70;;
84187;SDS011;76752;45.648;13.764;2024-02-21T06:29:36;13.10;;;4.78;;
84187;SDS011;76752;45.648;13.764;2024-02-21T06:32:02;16.10;;;4.97;;
84187;SDS011;76752;45.648;13.764;2024-02-21T06:34:28;15.93;;;5.07;;
84187;SDS011;76752;45.648;13.764;2024-02-21T06:36:54;22.98;;;5.07;;
84187;SDS011;76752;45.648;13.764;2024-02-21T06:39:20;20.90;;;5.30;;
84187;SDS011;76752;45.648;13.764;2024-02-21T06:41:48;12.43;;;4.60;;
84187;SDS011;76752;45.648;13.764;2024-02-21T06:44:15;14.80;;;4.93;;
84187;SDS011;76752;45.648;13.764;2024-02-21T06:46:41;19.75;;;5.13;;
84187;SDS011;76752;45.648;13.764;2024-02-21T06:49:08;19.67;;;4.63;;
84187;SDS011;76752;45.648;13.764;2024-02-21T06:51:33;9.85;;;4.57;;
84187;SDS011;76752;45.648;13.764;2024-02-21T06:53:59;15.20;;;4.38;;
84187;SDS011;76752;45.648;13.764;2024-02-21T06:56:26;14.23;;;4.97;;
84187;SDS011;76752;45.648;13.764;2024-02-21T06:58:54;8.50;;;4.43;;
84187;SDS011;76752;45.648;13.764;2024-02-21T07:01:20;14.65;;;4.30;;
84187;SDS011;76752;45.648;13.764;2024-02-21T07:03:46;17.95;;;4.45;;
84187;SDS011;76752;45.648;13.764;2024-02-21T07:06:13;12.48;;;4.63;;
84187;SDS011;76752;45.648;13.764;2024-02-21T07:08:39;17.05;;;4.90;;
84187;SDS011;76752;45.648;13.764;2024-02-21T07:11:05;11.65;;;4.32;;
84187;SDS011;76752;45.648;13.764;2024-02-21T07:13:32;16.30;;;5.00;;
84187;SDS011;76752;45.648;13.764;2024-02-21T07:15:58;14.98;;;4.72;;
84187;SDS011;76752;45.648;13.764;2024-02-21T07:18:24;12.57;;;4.35;;
84187;SDS011;76752;45.648;13.764;2024-02-21T07:20:51;14.57;;;4.20;;
84187;SDS011;76752;45.648;13.764;2024-02-21T07:23:18;11.00;;;4.30;;
84187;SDS011;76752;45.648;13.764;2024-02-21T07:25:43;11.77;;;4.18;;
84187;SDS011;76752;45.648;13.764;2024-02-21T07:28:09;12.80;;;3.85;;
84187;SDS011;76752;45.648;13.764;2024-02-21T07:30:35;12.70;;;4.45;;
84187;SDS011;76752;45.648;13.764;2024-02-21T07:33:01;14.82;;;4.50;;
84187;SDS011;76752;45.648;13.764;2024-02-21T07:35:27;11.57;;;4.15;;
84187;SDS011;76752;45.648;13.764;2024-02-21T07:37:53;16.25;;;4.53;;
84187;SDS011;76752;45.648;13.764;2024-02-21T07:40:19;13.38;;;4.80;;
84187;SDS011;76752;45.648;13.764;2024-02-21T07:42:48;12.02;;;4.43;;
84187;SDS011;76752;45.648;13.764;2024-02-21T07:45:14;6.80;;;3.70;;
84187;SDS011;76752;45.648;13.764;2024-02-21T07:47:39;13.52;;;4.63;;
84187;SDS011;76752;45.648;13.764;2024-02-21T07:50:06;8.13;;;4.10;;
84187;SDS011;76752;45.648;13.764;2024-02-21T07:52:34;11.75;;;4.55;;
84187;SDS011;76752;45.648;13.764;2024-02-21T07:54:59;8.95;;;3.88;;
84187;SDS011;76752;45.648;13.764;2024-02-21T07:57:26;13.02;;;4.10;;
84187;SDS011;76752;45.648;13.764;2024-02-21T07:59:53;8.95;;;4.10;;
84187;SDS011;76752;45.648;13.764;2024-02-21T08:02:19;9.38;;;4.20;;
84187;SDS011;76752;45.648;13.764;2024-02-21T08:04:46;8.82;;;4.10;;
84187;SDS011;76752;45.648;13.764;2024-02-21T08:07:12;7.45;;;4.00;;
84187;SDS011;76752;45.648;13.764;2024-02-21T08:09:39;8.57;;;4.10;;
84187;SDS011;76752;45.648;13.764;2024-02-21T08:12:07;9.68;;;4.00;;
84187;SDS011;76752;45.648;13.764;2024-02-21T08:14:33;7.28;;;3.80;;
84187;SDS011;76752;45.648;13.764;2024-02-21T08:17:00;7.07;;;3.78;;
84187;SDS011;76752;45.648;13.764;2024-02-21T08:19:25;10.60;;;4.38;;
84187;SDS011;76752;45.648;13.764;2024-02-21T08:21:51;6.95;;;4.00;;
84187;SDS011;76752;45.648;13.764;2024-02-21T08:24:17;12.93;;;4.10;;
84187;SDS011;76752;45.648;13.764;2024-02-21T08:26:43;4.85;;;3.42;;
84187;SDS011;76752;45.648;13.764;2024-02-21T08:29:13;11.45;;;4.28;;
84187;SDS011;76752;45.648;13.764;2024-02-21T08:31:40;15.18;;;4.32;;
84187;SDS011;76752;45.648;13.764;2024-02-21T08:34:06;10.68;;;4.25;;
84187;SDS011;76752;45.648;13.764;2024-02-21T08:36:35;7.20;;;4.13;;
84187;SDS011;76752;45.648;13.764;2024-02-21T08:39:02;5.22;;;3.70;;
84187;SDS011;76752;45.648;13.764;2024-02-21T08:41:32;9.45;;;3.88;;
84187;SDS011;76752;45.648;13.764;2024-02-21T08:43:58;8.70;;;3.55;;
84187;SDS011;76752;45.648;13.764;2024-02-21T08:46:25;10.65;;;3.90;;
84187;SDS011;76752;45.648;13.764;2024-02-21T08:48:55;6.30;;;3.88;;
84187;SDS011;76752;45.648;13.764;2024-02-21T08:51:21;7.97;;;3.63;;
84187;SDS011;76752;45.648;13.764;2024-02-21T08:53:47;5.85;;;3.38;;
84187;SDS011;76752;45.648;13.764;2024-02-21T08:56:14;10.68;;;3.83;;
84187;SDS011;76752;45.648;13.764;2024-02-21T08:58:40;7.18;;;3.58;;
84187;SDS011;76752;45.648;13.764;2024-02-21T09:01:06;5.32;;;3.55;;
84187;SDS011;76752;45.648;13.764;2024-02-21T09:03:36;6.95;;;3.92;;
84187;SDS011;76752;45.648;13.764;2024-02-21T09:06:02;7.43;;;3.50;;
84187;SDS011;76752;45.648;13.764;2024-02-21T09:08:28;5.68;;;3.53;;
84187;SDS011;76752;45.648;13.764;2024-02-21T09:10:54;5.53;;;3.50;;
84187;SDS011;76752;45.648;13.764;2024-02-21T09:13:20;6.32;;;3.80;;
84187;SDS011;76752;45.648;13.764;2024-02-21T09:15:46;8.02;;;3.67;;
84187;SDS011;76752;45.648;13.764;2024-02-21T09:18:13;7.50;;;3.33;;
84187;SDS011;76752;45.648;13.764;2024-02-21T09:20:40;6.15;;;3.75;;
84187;SDS011;76752;45.648;13.764;2024-02-21T09:23:06;4.57;;;3.20;;
84187;SDS011;76752;45.648;13.764;2024-02-21T09:25:32;6.95;;;3.60;;
84187;SDS011;76752;45.648;13.764;2024-02-21T09:27:59;4.75;;;3.13;;
84187;SDS011;76752;45.648;13.764;2024-02-21T09:30:26;4.28;;;3.03;;
84187;SDS011;76752;45.648;13.764;2024-02-21T09:32:52;4.97;;;3.30;;
84187;SDS011;76752;45.648;13.764;2024-02-21T09:35:18;6.55;;;3.28;;
84187;SDS011;76752;45.648;13.764;2024-02-21T09:37:44;5.40;;;3.50;;
84187;SDS011;76752;45.648;13.764;2024-02-21T09:40:10;9.05;;;3.17;;
84187;SDS011;76752;45.648;13.764;2024-02-21T09:42:38;6.47;;;3.28;;
84187;SDS011;76752;45.648;13.764;2024-02-21T09:45:07;4.38;;;3.47;;
84187;SDS011;76752;45.648;13.764;2024-02-21T09:48:00;5.30;;;3.55;;
84187;SDS011;76752;45.648;13.764;2024-02-21T09:50:40;4.35;;;2.88;;
84187;SDS011;76752;45.648;13.764;2024-02-21T09:53:08;5.25;;;3.42;;
84187;SDS011;76752;45.648;13.764;2024-02-21T09:55:36;5.35;;;3.22;;
84187;SDS011;76752;45.648;13.764;2024-02-21T09:58:05;5.90;;;3.42;;
84187;SDS011;76752;45.648;13.764;2024-02-21T10:00:31;3.70;;;3.20;;
84187;SDS011;76752;45.648;13.764;2024-02-21T10:02:58;4.53;;;3.50;;
84187;SDS011;76752;45.648;13.764;2024-02-21T10:05:24;5.03;;;3.15;;
84187;SDS011;76752;45.648;13.764;2024-02-21T10:07:50;7.70;;;2.97;;
84187;SDS011;76752;45.648;13.764;2024-02-21T10:10:16;4.90;;;3.42;;
84187;SDS011;76752;45.648;13.764;2024-02-21T10:12:49;4.53;;;2.83;;
84187;SDS011;76752;45.648;13.764;2024-02-21T10:15:19;6.05;;;3.40;;
84187;SDS011;76752;45.648;13.764;2024-02-21T10:17:46;6.30;;;3.78;;
84187;SDS011;76752;45.648;13.764;2024-02-21T10:20:12;5.07;;;2.92;;
84187;SDS011;76752;45.648;13.764;2024-02-21T10:22:40;3.40;;;2.78;;
84187;SDS011;76752;45.648;13.764;2024-02-21T10:25:10;5.57;;;3.13;;
84187;SDS011;76752;45.648;13.764;2024-02-21T10:27:36;5.03;;;2.80;;
84187;SDS011;76752;45.648;13.764;2024-02-21T10:30:07;5.35;;;3.20;;
84187;SDS011;76752;45.648;13.764;2024-02-21T10:32:33;5.63;;;3.33;;
84187;SDS011;76752;45.648;13.764;2024-02-21T10:35:02;3.72;;;2.78;;
84187;SDS011;76752;45.648;13.764;2024-02-21T10:37:33;4.22;;;3.10;;
84187;SDS011;76752;45.648;13.764;2024-02-21T10:40:00;3.47;;;2.80;;
84187;SDS011;76752;45.648;13.764;2024-02-21T10:42:29;3.75;;;2.80;;
84187;SDS011;76752;45.648;13.764;2024-02-21T10:45:00;6.43;;;3.50;;
84187;SDS011;76752;45.648;13.764;2024-02-21T10:47:29;5.32;;;2.88;;
84187;SDS011;76752;45.648;13.764;2024-02-21T10:50:02;6.10;;;3.17;;
84187;SDS011;76752;45.648;13.764;2024-02-21T10:52:56;3.80;;;2.80;;
84187;SDS011;76752;45.648;13.764;2024-02-21T10:55:37;4.13;;;3.10;;
84187;SDS011;76752;45.648;13.764;2024-02-21T10:58:14;9.77;;;3.60;;
84187;SDS011;76752;45.648;13.764;2024-02-21T11:00:40;6.40;;;2.95;;
84187;SDS011;76752;45.648;13.764;2024-02-21T11:03:06;3.30;;;2.63;;
84187;SDS011;76752;45.648;13.764;2024-02-21T11:05:32;5.22;;;3.05;;
84187;SDS011;76752;45.648;13.764;2024-02-21T11:07:59;3.60;;;2.83;;
84187;SDS011;76752;45.648;13.764;2024-02-21T11:10:25;4.20;;;2.90;;
84187;SDS011;76752;45.648;13.764;2024-02-21T11:12:52;4.78;;;2.95;;
84187;SDS011;76752;45.648;13.764;2024-02-21T11:15:30;3.38;;;3.10;;
84187;SDS011;76752;45.648;13.764;2024-02-21T11:17:56;4.40;;;2.72;;
84187;SDS011;76752;45.648;13.764;2024-02-21T11:20:31;6.57;;;2.85;;
84187;SDS011;76752;45.648;13.764;2024-02-21T11:22:58;4.82;;;2.88;;
84187;SDS011;76752;45.648;13.764;2024-02-21T11:25:24;5.07;;;3.42;;
84187;SDS011;76752;45.648;13.764;2024-02-21T11:27:50;3.22;;;2.92;;
84187;SDS011;76752;45.648;13.764;2024-02-21T11:30:29;3.40;;;2.85;;
84187;SDS011;76752;45.648;13.764;2024-02-21T11:33:02;5.80;;;2.95;;
84187;SDS011;76752;45.648;13.764;2024-02-21T11:35:38;3.97;;;3.00;;
84187;SDS011;76752;45.648;13.764;2024-02-21T11:38:10;4.50;;;2.97;;
84187;SDS011;76752;45.648;13.764;2024-02-21T11:40:41;8.00;;;2.95;;
84187;SDS011;76752;45.648;13.764;2024-02-21T11:43:08;8.30;;;2.75;;
84187;SDS011;76752;45.648;13.764;2024-02-21T11:45:34;3.67;;;2.88;;
84187;SDS011;76752;45.648;13.764;2024-02-21T11:47:59;3.33;;;2.95;;
84187;SDS011;76752;45.648;13.764;2024-02-21T11:50:28;5.72;;;2.97;;
84187;SDS011;76752;45.648;13.764;2024-02-21T11:52:55;4.03;;;2.75;;
84187;SDS011;76752;45.648;13.764;2024-02-21T11:55:24;2.97;;;2.63;;
84187;SDS011;76752;45.648;13.764;2024-02-21T11:57:50;3.40;;;2.92;;
84187;SDS011;76752;45.648;13.764;2024-02-21T12:00:17;5.47;;;3.35;;
84187;SDS011;76752;45.648;13.764;2024-02-21T12:02:46;3.08;;;2.60;;
84187;SDS011;76752;45.648;13.764;2024-02-21T12:05:13;3.03;;;2.72;;
84187;SDS011;76752;45.648;13.764;2024-02-21T12:07:39;3.00;;;2.70;;
84187;SDS011;76752;45.648;13.764;2024-02-21T12:10:07;3.38;;;2.78;;
84187;SDS011;76752;45.648;13.764;2024-02-21T12:12:37;4.40;;;2.72;;
84187;SDS011;76752;45.648;13.764;2024-02-21T12:15:04;3.88;;;2.70;;
84187;SDS011;76752;45.648;13.764;2024-02-21T12:17:30;3.17;;;2.58;;
84187;SDS011;76752;45.648;13.764;2024-02-21T12:19:58;4.85;;;2.72;;
84187;SDS011;76752;45.648;13.764;2024-02-21T12:22:25;3.63;;;2.85;;
84187;SDS011;76752;45.648;13.764;2024-02-21T12:24:51;4.20;;;2.53;;
84187;SDS011;76752;45.648;13.764;2024-02-21T12:27:18;4.40;;;2.72;;
84187;SDS011;76752;45.648;13.764;2024-02-21T12:29:43;4.47;;;2.70;;
84187;SDS011;76752;45.648;13.764;2024-02-21T12:32:10;3.08;;;2.75;;
84187;SDS011;76752;45.648;13.764;2024-02-21T12:34:36;2.58;;;2.35;;
84187;SDS011;76752;45.648;13.764;2024-02-21T12:37:02;3.47;;;2.53;;
84187;SDS011;76752;45.648;13.764;2024-02-21T12:39:31;3.53;;;2.70;;
84187;SDS011;76752;45.648;13.764;2024-02-21T12:41:57;3.45;;;2.58;;
84187;SDS011;76752;45.648;13.764;2024-02-21T12:44:24;2.40;;;2.20;;
84187;SDS011;76752;45.648;13.764;2024-02-21T12:46:50;3.42;;;2.70;;
84187;SDS011;76752;45.648;13.764;2024-02-21T12:49:21;3.13;;;2.83;;
84187;SDS011;76752;45.648;13.764;2024-02-21T12:51:47;2.88;;;2.67;;
84187;SDS011;76752;45.648;13.764;2024-02-21T12:54:13;3.53;;;2.58;;
84187;SDS011;76752;45.648;13.764;2024-02-21T12:56:39;2.63;;;2.42;;
84187;SDS011;76752;45.648;13.764;2024-02-21T12:59:05;3.38;;;2.75;;
84187;SDS011;76752;45.648;13.764;2024-02-21T13:01:34;2.85;;;2.20;;
84187;SDS011;76752;45.648;13.764;2024-02-21T13:04:01;2.40;;;2.25;;
84187;SDS011;76752;45.648;13.764;2024-02-21T13:06:28;2.95;;;2.67;;
84187;SDS011;76752;45.648;13.764;2024-02-21T13:08:54;3.05;;;2.42;;
84187;SDS011;76752;45.648;13.764;2024-02-21T13:11:20;2.30;;;2.10;;
84187;SDS011;76752;45.648;13.764;2024-02-21T13:13:46;4.30;;;2.50;;
84187;SDS011;76752;45.648;13.764;2024-02-21T13:16:12;2.78;;;2.58;;
84187;SDS011;76752;45.648;13.764;2024-02-21T13:18:38;3.00;;;2.22;;
84187;SDS011;76752;45.648;13.764;2024-02-21T13:21:05;2.15;;;1.95;;
84187;SDS011;76752;45.648;13.764;2024-02-21T13:23:31;2.55;;;2.35;;
84187;SDS011;76752;45.648;13.764;2024-02-21T13:25:57;2.58;;;2.38;;
84187;SDS011;76752;45.648;13.764;2024-02-21T13:28:23;2.42;;;2.17;;
84187;SDS011;76752;45.648;13.764;2024-02-21T13:30:49;2.45;;;2.22;;
84187;SDS011;76752;45.648;13.764;2024-02-21T13:33:15;3.05;;;2.75;;
84187;SDS011;76752;45.648;13.764;2024-02-21T13:35:41;2.67;;;2.47;;
84187;SDS011;76752;45.648;13.764;2024-02-21T13:38:07;2.72;;;2.33;;
84187;SDS011;76752;45.648;13.764;2024-02-21T13:40:33;3.15;;;2.22;;
84187;SDS011;76752;45.648;13.764;2024-02-21T13:42:59;3.28;;;2.42;;
84187;SDS011;76752;45.648;13.764;2024-02-21T13:45:26;4.57;;;2.63;;
84187;SDS011;76752;45.648;13.764;2024-02-21T13:47:52;3.08;;;2.67;;
84187;SDS011;76752;45.648;13.764;2024-02-21T13:50:18;2.63;;;2.20;;
84187;SDS011;76752;45.648;13.764;2024-02-21T13:52:45;2.53;;;2.33;;
84187;SDS011;76752;45.648;13.764;2024-02-21T13:55:11;5.07;;;2.50;;
84187;SDS011;76752;45.648;13.764;2024-02-21T13:57:37;2.20;;;2.00;;
84187;SDS011;76752;45.648;13.764;2024-02-21T14:00:03;2.40;;;2.20;;
84187;SDS011;76752;45.648;13.764;2024-02-21T14:02:30;2.03;;;1.83;;
84187;SDS011;76752;45.648;13.764;2024-02-21T14:04:56;3.63;;;2.72;;
84187;SDS011;76752;45.648;13.764;2024-02-21T14:07:22;6.22;;;2.38;;
84187;SDS011;76752;45.648;13.764;2024-02-21T14:09:48;3.50;;;2.30;;
84187;SDS011;76752;45.648;13.764;2024-02-21T14:12:15;2.42;;;2.22;;
84187;SDS011;76752;45.648;13.764;2024-02-21T14:14:45;2.90;;;2.30;;
84187;SDS011;76752;45.648;13.764;2024-02-21T14:17:11;2.40;;;2.20;;
84187;SDS011;76752;45.648;13.764;2024-02-21T14:19:36;3.63;;;2.40;;
84187;SDS011;76752;45.648;13.764;2024-02-21T14:22:02;2.50;;;2.30;;
84187;SDS011;76752;45.648;13.764;2024-02-21T14:24:28;2.75;;;2.53;;
84187;SDS011;76752;45.648;13.764;2024-02-21T14:26:55;2.75;;;2.35;;
84187;SDS011;76752;45.648;13.764;2024-02-21T14:29:23;2.63;;;2.20;;